createdAt,value
2023-09-22T03:46:47.287Z,99612.00
2023-09-22T03:49:52.241Z,99612.00
2023-09-22T03:52:55.352Z,99615.66
2023-09-22T03:56:01.808Z,99608.72
2023-09-22T03:59:06.407Z,99616.88
2023-09-22T04:02:09.693Z,99623.03
2023-09-22T04:05:19.034Z,99620.63
2023-09-22T04:08:27.234Z,99623.53
2023-09-22T04:11:30.385Z,99614.88
2023-09-22T04:14:33.627Z,99622.00
2023-09-22T04:17:38.384Z,99621.56
2023-09-22T04:20:45.311Z,99625.91
2023-09-22T04:24:00.275Z,99629.41
2023-09-22T04:27:08.012Z,99633.88
2023-09-22T04:30:14.394Z,99635.31
2023-09-22T04:33:18.714Z,99636.00
2023-09-22T04:36:25.066Z,99637.72
2023-09-22T04:39:33.165Z,99632.09
2023-09-22T04:42:36.479Z,99627.53
2023-09-22T04:45:41.996Z,99635.94
2023-09-22T04:48:48.037Z,99629.25
2023-09-22T04:51:50.972Z,99634.91
2023-09-22T04:54:54.905Z,99648.84
2023-09-22T04:57:58.088Z,99658.16
2023-09-22T05:01:02.956Z,99653.75
2023-09-22T05:04:07.894Z,99650.97
2023-09-22T05:07:14.438Z,99651.56
2023-09-22T05:10:17.306Z,99649.63
2023-09-22T05:13:20.314Z,99660.44
2023-09-22T05:16:23.265Z,99660.72
2023-09-22T05:19:26.526Z,99657.53
2023-09-22T05:22:29.337Z,99658.66
2023-09-22T05:25:32.394Z,99665.97
2023-09-22T05:28:35.631Z,99672.16
2023-09-22T05:31:38.466Z,99661.25
2023-09-22T05:34:43.126Z,99656.50
2023-09-22T05:37:46.418Z,99655.38
2023-09-22T05:40:50.152Z,99654.81
2023-09-22T05:43:57.517Z,99654.59
2023-09-22T05:47:00.347Z,99643.09
2023-09-22T05:50:03.785Z,99647.28
2023-09-22T05:53:06.598Z,99653.72
2023-09-22T05:56:13.394Z,99659.78
2023-09-22T05:59:17.596Z,99661.69
2023-09-22T06:02:21.041Z,99662.81
2023-09-22T06:05:24.194Z,99666.19
2023-09-22T06:08:27.247Z,99665.13
2023-09-22T06:11:30.229Z,99668.28
2023-09-22T06:14:33.147Z,99679.53
2023-09-22T06:17:37.490Z,99686.09
2023-09-22T06:20:40.432Z,99687.87
2023-09-22T06:23:43.618Z,99684.91
2023-09-22T06:26:46.394Z,99695.97
2023-09-22T06:29:49.230Z,99695.56
2023-09-22T06:32:52.380Z,99705.06
2023-09-22T06:36:06.217Z,99694.75
2023-09-22T06:39:09.814Z,99700.03
2023-09-22T06:42:13.160Z,99689.16
2023-09-22T06:45:19.655Z,99686.03
2023-09-22T06:48:31.110Z,99694.03
2023-09-22T06:51:34.966Z,99693.56
2023-09-22T06:54:41.582Z,99691.78
2023-09-22T06:57:44.950Z,99703.25
2023-09-22T07:00:49.632Z,99701.91
2023-09-22T07:03:52.794Z,99706.66
2023-09-22T07:06:56.206Z,99712.25
2023-09-22T07:09:59.489Z,99709.09
2023-09-22T07:13:03.443Z,99721.53
2023-09-22T07:16:06.549Z,99712.78
2023-09-22T07:19:09.881Z,99718.75
2023-09-22T07:22:13.394Z,99722.28
2023-09-22T07:25:18.191Z,99721.63
2023-09-22T07:28:21.101Z,99716.91
2023-09-22T07:31:29.530Z,99718.03
2023-09-22T07:34:33.101Z,99722.16
2023-09-22T07:37:39.139Z,99726.34
2023-09-22T07:40:42.197Z,99719.84
2023-09-22T07:43:45.655Z,99721.06
2023-09-22T07:46:51.858Z,99722.78
2023-09-22T07:49:58.392Z,99725.31
2023-09-22T07:53:02.065Z,99722.62
2023-09-22T07:56:05.384Z,99725.66
2023-09-22T07:59:13.700Z,99740.44
2023-09-22T08:02:18.497Z,99739.09
2023-09-22T08:05:24.354Z,99733.53
2023-09-22T08:08:27.790Z,99728.47
2023-09-22T08:11:31.992Z,99738.50
2023-09-22T08:14:54.566Z,99737.88
2023-09-22T08:17:59.564Z,99738.09
2023-09-22T08:21:02.696Z,99738.19
2023-09-22T08:24:06.474Z,99731.41
2023-09-22T08:27:09.366Z,99732.34
2023-09-22T08:30:13.221Z,99744.22
2023-09-22T08:33:16.707Z,99737.88
2023-09-22T08:36:20.396Z,99749.22
2023-09-22T08:39:23.802Z,99742.56
2023-09-22T08:42:29.171Z,99747.84
2023-09-22T08:45:32.460Z,99738.38
2023-09-22T08:48:36.073Z,99742.69
2023-09-22T08:51:39.392Z,99739.50
2023-09-22T08:54:44.175Z,99737.44
2023-09-22T08:57:48.680Z,99737.44
2023-09-22T09:00:53.090Z,99739.84
2023-09-22T09:03:56.437Z,99726.37
2023-09-22T09:07:00.513Z,99723.44
2023-09-22T09:10:03.564Z,99723.34
2023-09-22T09:13:09.187Z,99724.03
2023-09-22T09:16:13.143Z,99718.16
2023-09-22T09:19:16.475Z,99723.75
2023-09-22T09:22:19.715Z,99716.00
2023-09-22T09:25:22.998Z,99718.34
2023-09-22T09:28:26.546Z,99722.75
2023-09-22T09:31:49.161Z,99719.59
2023-09-22T09:34:52.612Z,99714.19
2023-09-22T09:38:04.575Z,99714.69
2023-09-22T09:41:09.627Z,99712.75
2023-09-22T09:44:13.308Z,99708.56
2023-09-22T09:47:38.464Z,99711.06
2023-09-22T09:50:44.282Z,99707.41
2023-09-22T09:53:52.693Z,99697.69
2023-09-22T09:56:56.687Z,99695.09
2023-09-22T10:00:00.692Z,99700.03
2023-09-22T10:03:08.158Z,99682.16
2023-09-22T10:06:13.792Z,99671.78
2023-09-22T10:09:17.467Z,99669.94
2023-09-22T10:12:21.076Z,99671.25
2023-09-22T10:15:52.399Z,99672.28
2023-09-22T10:19:03.476Z,99654.12
2023-09-22T10:22:13.592Z,99653.25
2023-09-22T10:25:31.560Z,99649.59
2023-09-22T10:28:38.523Z,99640.91
2023-09-22T10:32:22.950Z,99645.53
2023-09-22T10:35:41.885Z,99638.75
2023-09-22T10:38:56.556Z,99650.28
2023-09-22T10:42:01.007Z,99642.00
2023-09-22T10:45:07.078Z,99642.13
2023-09-22T10:48:12.308Z,99644.19
2023-09-22T10:51:16.248Z,99642.34
2023-09-22T10:54:19.961Z,99636.97
2023-09-22T10:57:25.058Z,99635.44
2023-09-22T11:00:28.355Z,99627.97
2023-09-22T11:03:34.191Z,99623.00
2023-09-22T11:06:43.838Z,99622.63
2023-09-22T11:09:49.387Z,99622.16
2023-09-22T11:12:53.327Z,99619.69
2023-09-22T11:16:01.311Z,99625.56
2023-09-22T11:19:06.361Z,99611.75
2023-09-22T11:22:11.219Z,99610.63
2023-09-22T11:25:14.766Z,99612.09
2023-09-22T11:28:18.500Z,99611.63
2023-09-22T11:31:21.365Z,99626.72
2023-09-22T11:34:25.829Z,99606.34
2023-09-22T11:37:32.385Z,99611.09
2023-09-22T11:40:40.869Z,99614.25
2023-09-22T11:43:49.608Z,99608.22
2023-09-22T11:46:53.818Z,99605.13
2023-09-22T11:49:57.104Z,99605.56
2023-09-22T11:53:21.717Z,99614.75
2023-09-22T11:56:25.091Z,99614.81
2023-09-22T11:59:33.300Z,99606.72
2023-09-22T12:02:36.763Z,99610.38
2023-09-22T12:05:40.108Z,99609.63
2023-09-22T12:08:42.887Z,99602.59
2023-09-22T12:11:47.294Z,99606.97
2023-09-22T12:14:50.249Z,99612.19
2023-09-22T12:17:53.257Z,99611.56
2023-09-22T12:20:57.368Z,99618.91
2023-09-22T12:24:01.292Z,99628.59
2023-09-22T12:27:04.722Z,99626.69
2023-09-22T12:30:08.718Z,99626.47
2023-09-22T12:33:13.040Z,99618.38
2023-09-22T12:36:17.597Z,99618.84
2023-09-22T12:39:20.489Z,99635.91
2023-09-22T12:42:23.522Z,99650.31
2023-09-22T12:45:26.839Z,99621.94
2023-09-22T12:48:29.989Z,99625.22
2023-09-22T12:51:32.958Z,99613.91
2023-09-22T12:54:36.284Z,99635.09
2023-09-22T12:57:40.534Z,99626.94
2023-09-22T13:00:44.381Z,99621.94
2023-09-22T13:03:47.792Z,99633.72
2023-09-22T13:06:54.043Z,99611.53
2023-09-22T13:09:56.915Z,99615.44
2023-09-22T13:13:00.074Z,99616.06
2023-09-22T13:16:03.962Z,99609.88
2023-09-22T13:19:07.370Z,99601.34
2023-09-22T13:22:10.669Z,99598.44
2023-09-22T13:25:14.435Z,99598.78
2023-09-22T13:28:18.028Z,99591.69
2023-09-22T13:31:21.465Z,99595.44
2023-09-22T13:34:24.760Z,99592.50
2023-09-22T13:37:28.232Z,99590.06
2023-09-22T13:40:32.499Z,99581.19
2023-09-22T13:43:36.148Z,99575.44
2023-09-22T13:46:38.887Z,99573.56
2023-09-22T13:49:41.973Z,99576.84
2023-09-22T13:52:45.760Z,99577.84
2023-09-22T13:55:50.271Z,99589.94
2023-09-22T13:58:53.213Z,99579.31
2023-09-22T14:01:57.215Z,99575.09
2023-09-22T14:05:00.458Z,99562.84
2023-09-22T14:08:05.369Z,99556.81
2023-09-22T14:11:14.330Z,99554.50
2023-09-22T14:14:21.632Z,99557.78
2023-09-22T14:17:25.309Z,99554.66
2023-09-22T14:20:28.419Z,99542.84
2023-09-22T14:23:31.576Z,99550.87
2023-09-22T14:26:34.558Z,99542.91
2023-09-22T14:29:38.027Z,99545.53
2023-09-22T14:32:43.060Z,99547.47
2023-09-22T14:35:47.619Z,99538.09
2023-09-22T14:38:50.702Z,99536.37
2023-09-22T14:41:53.792Z,99529.03
2023-09-22T14:44:56.639Z,99537.13
2023-09-22T14:47:59.785Z,99533.03
2023-09-22T14:51:08.599Z,99547.84
2023-09-22T14:54:12.199Z,99534.19
2023-09-22T14:57:15.389Z,99535.94
2023-09-22T15:00:18.702Z,99544.28
2023-09-22T15:03:21.745Z,99547.69
2023-09-22T15:06:24.891Z,99542.59
2023-09-22T15:09:27.926Z,99543.97
2023-09-22T15:12:31.463Z,99536.28
2023-09-22T15:15:36.738Z,99545.03
2023-09-22T15:18:41.062Z,99542.88
2023-09-22T15:21:44.354Z,99534.25
